ADDS METAR Data INFO
IDs: Format: Raw Decoded Include TAF

Data at: 0454 UTC 25 May 2018

METAR for:PACD (Cold Bay Arpt, AK, US)
Text:PACD 250441Z AUTO 35008KT 10SM FEW023 SCT028 08/03 A2958 RMK AO2 T00830033 TSNO
Temperature: 8.3°C ( 47°F)
Dewpoint: 3.3°C ( 38°F) [RH = 71%]
Pressure (altimeter):29.58 inches Hg (1001.8 mb)
Winds:from the N (350 degrees) at 9 MPH (8 knots; 4.1 m/s)
Visibility:10 or more sm (16+ km)
Ceiling:at least 12,000 feet AGL
Clouds: few clouds at 2300 feet AGL, scattered clouds at 2800 feet AGL
QC Flag:automated observation with no human augmentation
Text:PACD 250353Z AUTO 34007KT 10SM BKN024 10/03 A2957 RMK AO2 SLP014 T01000033 TSNO
Temperature: 10.0°C ( 50°F)
Dewpoint: 3.3°C ( 38°F) [RH = 63%]
Pressure (altimeter):29.57 inches Hg (1001.4 mb) [Sea level pressure: 1001.4 mb]
Winds:from the NNW (340 degrees) at 8 MPH (7 knots; 3.6 m/s)
Visibility:10 or more sm (16+ km)
Ceiling:2400 feet AGL
Clouds: broken clouds at 2400 feet AGL
QC Flag:automated observation with no human augmentation
Text:PACD 250334Z AUTO 35007KT 10SM SCT027 BKN038 08/03 A2957 RMK AO2 T00830028 TSNO
Temperature: 8.3°C ( 47°F)
Dewpoint: 2.8°C ( 37°F) [RH = 68%]
Pressure (altimeter):29.57 inches Hg (1001.4 mb)
Winds:from the N (350 degrees) at 8 MPH (7 knots; 3.6 m/s)
Visibility:10 or more sm (16+ km)
Ceiling:3800 feet AGL
Clouds: scattered clouds at 2700 feet AGL, broken clouds at 3800 feet AGL
QC Flag:automated observation with no human augmentation
Text:PACD 250253Z AUTO 03004KT 10SM BKN028 OVC032 09/03 A2957 RMK AO2 RAE01B25E35 SLP015 P0000 60000 T00890028 57000 TSNO
Temperature: 8.9°C ( 48°F)
Dewpoint: 2.8°C ( 37°F) [RH = 66%]
Pressure (altimeter):29.57 inches Hg (1001.4 mb) [Sea level pressure: 1001.5 mb]
Winds:from the NNE (30 degrees) at 5 MPH (4 knots; 2.1 m/s)
Visibility:10 or more sm (16+ km)
Ceiling:2800 feet AGL
Clouds: broken clouds at 2800 feet AGL, overcast cloud deck at 3200 feet AGL
QC Flag:automated observation with no human augmentation
Text:PACD 250153Z AUTO 26009KT 10SM -RA OVC027 08/03 A2957 RMK AO2 RAB46 SLP016 P0000 T00830028 TSNO
Temperature: 8.3°C ( 47°F)
Dewpoint: 2.8°C ( 37°F) [RH = 68%]
Pressure (altimeter):29.57 inches Hg (1001.4 mb) [Sea level pressure: 1001.6 mb]
Winds:from the W (260 degrees) at 10 MPH (9 knots; 4.6 m/s)
Visibility:10 or more sm (16+ km)
Ceiling:2700 feet AGL
Clouds: overcast cloud deck at 2700 feet AGL
Weather:-RA (light rain)
QC Flag:automated observation with no human augmentation
Text:PACD 250102Z AUTO 24007KT 10SM BKN028 OVC034 08/03 A2957 RMK AO2 T00780033 TSNO
Temperature: 7.8°C ( 46°F)
Dewpoint: 3.3°C ( 38°F) [RH = 73%]
Pressure (altimeter):29.57 inches Hg (1001.4 mb)
Winds:from the WSW (240 degrees) at 8 MPH (7 knots; 3.6 m/s)
Visibility:10 or more sm (16+ km)
Ceiling:2800 feet AGL
Clouds: broken clouds at 2800 feet AGL, overcast cloud deck at 3400 feet AGL
QC Flag:automated observation with no human augmentation
Text:PACD 250053Z 23008KT 10SM OVC030 08/03 A2957 RMK AO2 SLP015 T00780033
Temperature: 7.8°C ( 46°F)
Dewpoint: 3.3°C ( 38°F) [RH = 73%]
Pressure (altimeter):29.57 inches Hg (1001.4 mb) [Sea level pressure: 1001.5 mb]
Winds:from the SW (230 degrees) at 9 MPH (8 knots; 4.1 m/s)
Visibility:10 or more sm (16+ km)
Ceiling:3000 feet AGL
Clouds: overcast cloud deck at 3000 feet AGL
Text:PACD 250049Z VRB05KT 10SM OVC031 08/03 A2957 RMK AO2
Temperature: 8.0°C ( 46°F)
Dewpoint: 3.0°C ( 37°F) [RH = 71%]
Pressure (altimeter):29.57 inches Hg (1001.4 mb)
Winds:variable direction winds at 6 MPH (5 knots; 2.6 m/s)
Visibility:10 or more sm (16+ km)
Ceiling:3100 feet AGL
Clouds: overcast cloud deck at 3100 feet AGL
Text:PACD 242353Z 10004KT 10SM BKN027 OVC036 09/03 A2957 RMK AO2 SLP015 60000 T00890028 10100 20056 53004
Temperature: 8.9°C ( 48°F)
Dewpoint: 2.8°C ( 37°F) [RH = 66%]
Pressure (altimeter):29.57 inches Hg (1001.4 mb) [Sea level pressure: 1001.5 mb]
Winds:from the E (100 degrees) at 5 MPH (4 knots; 2.1 m/s)
Visibility:10 or more sm (16+ km)
Ceiling:2700 feet AGL
Clouds: broken clouds at 2700 feet AGL, overcast cloud deck at 3600 feet AGL

TAF for:PACD (Cold Bay Arpt, AK, US) issued at 2346 UTC 24 May 2018
Text:PACD 242346Z 2500/2524 VRB06KT P6SM VCSH BKN025 OVC035
Forecast period:0000 to 1500 UTC 25 May 2018
Forecast type:FROM: standard forecast or significant change
Winds:variable direction winds at 7 MPH (6 knots; 3.1 m/s)
Visibility:6 or more sm (10+ km)
Ceiling:2500 feet AGL
Clouds: broken clouds at 2500 feet AGL, overcast cloud deck at 3500 feet AGL
Weather:VCSH (showers in vicinity)
Text:TEMPO 2500/2503 SCT025 BKN035
Forecast period:0000 to 0300 UTC 25 May 2018
Forecast type:TEMPORARY: The following changes expected for less than half the time period
Ceiling:3500 feet AGL
Clouds: scattered clouds at 2500 feet AGL, broken clouds at 3500 feet AGL
Text:FM251500 34010KT P6SM -SHRA BKN015
Forecast period:1500 UTC 25 May 2018 to 0000 UTC 26 May 2018
Forecast type:FROM: standard forecast or significant change
Winds:from the NNW (340 degrees) at 12 MPH (10 knots; 5.1 m/s)
Visibility:6 or more sm (10+ km)
Ceiling:1500 feet AGL
Clouds: broken clouds at 1500 feet AGL
Weather:-SHRA (light rain showers)